Texas City — WDD4983 — position and weather

sailwx.info

Track history (hours):
 
Tides and Currents Weather Stations Pressure Air Temp Water Temp Dewpoint Dewpoint Depression Visibility Wind Speed Wind Dir Waves Ship Positions

Texas City

Owner: Marathon Petroleum Company LP, Findlay, OH. More information available from US FCC via Universal Licensing System and Coast Guard Vessel Documentation Center.

Last reported at 2017-Jan-23 21:19 UTC. Time now 2017-Jan-25 01:29 UTC.
Position N 29°47' W 091°49'.

Length 28 m; draft 3 m.

Type: . MMSI: 367135470.

Date/timePositionNaut miles runAvg speedWind from/ knotsBaromVisibWave heightAir tempDewpointWater temp
2017-Jan-23 21:19N 29°47' W 091°49'5 2.6
2017-Jan-23 19:19N 29°51' W 091°53'3 4.4
2017-Jan-23 18:33N 29°50' W 091°57'5 4.8
2017-Jan-23 17:33N 29°49' W 092°02'5 4.8
2017-Jan-23 16:33N 29°47' W 092°08'3 2.9
2017-Jan-23 15:33N 29°47' W 092°11'0 0.0
2017-Jan-23 14:33N 29°47' W 092°11'0 0.0
2017-Jan-23 13:33N 29°47' W 092°11'1 0.8
2017-Jan-23 12:33N 29°47' W 092°12'2 2.2
2017-Jan-23 11:33N 29°48' W 092°14'0 0.0
2017-Jan-23 10:33N 29°48' W 092°14'0 0.0
2017-Jan-23 09:33N 29°48' W 092°14'0 0.0
2017-Jan-23 08:33N 29°48' W 092°14'4 3.8
2017-Jan-23 07:33N 29°50' W 092°18'5 4.8
2017-Jan-23 06:33N 29°52' W 092°23'37 5.1
2017-Jan-22 23:19N 29°56' W 093°05'4 5.3
2017-Jan-22 22:33N 29°56' W 093°09'5 5.1
2017-Jan-22 21:33N 29°60' W 093°13'5 4.5
2017-Jan-22 20:33N 30°04' W 093°16'3 3.4
2017-Jan-22 19:33N 30°06' W 093°19'4 4.2
2017-Jan-22 18:33N 30°04' W 093°24'6 5.9
2017-Jan-22 17:33N 30°04' W 093°30'6 5.8
2017-Jan-22 16:33N 30°04' W 093°37'62 4.7
2017-Jan-22 03:24N 29°29' W 094°36'16 4.2
2017-Jan-21 23:28N 29°22' W 094°53'  
2017-Jan-19 17:29N 29°22' W 094°53'7 0.8
2017-Jan-19 09:33N 29°29' W 094°52'6 5.9
2017-Jan-19 08:33N 29°34' W 094°55'6 5.8
2017-Jan-19 07:33N 29°39' W 094°58'8 5.8
2017-Jan-19 06:08N 29°46' W 095°04'1 1.5
2017-Jan-19 05:33N 29°46' W 095°05'0 0.0
2017-Jan-18 23:33N 29°46' W 095°05'0 0.0
2017-Jan-18 22:33N 29°46' W 095°05'0 0.0
2017-Jan-18 21:33N 29°46' W 095°05'0 0.0
2017-Jan-18 20:31N 29°46' W 095°05'1 0.6
2017-Jan-18 19:32N 29°47' W 095°04'0 0.2
2017-Jan-18 17:32N 29°47' W 095°04'2 0.1
2017-Jan-17 23:09N 29°46' W 095°06'0 0.0
2017-Jan-17 22:33N 29°46' W 095°06'0 0.0
2017-Jan-17 21:33N 29°46' W 095°06'0 0.0
2017-Jan-17 20:31N 29°46' W 095°06'0 0.0
2017-Jan-17 19:33N 29°46' W 095°06'0 0.0
2017-Jan-17 18:33N 29°46' W 095°06'0 0.0
2017-Jan-17 17:33N 29°46' W 095°06'0 0.0
2017-Jan-17 16:33N 29°46' W 095°06'0 0.0
2017-Jan-17 15:33N 29°46' W 095°06'0 0.0
2017-Jan-17 14:31N 29°46' W 095°06'0 0.0
2017-Jan-17 13:33N 29°46' W 095°06'0 0.0
2017-Jan-16 23:23N 29°46' W 095°06'0 0.0
2017-Jan-16 22:26N 29°46' W 095°06'0 0.0
2017-Jan-16 21:32N 29°46' W 095°06'0 0.0
2017-Jan-16 20:31N 29°46' W 095°06'0 0.0
2017-Jan-16 19:33N 29°46' W 095°06'0 0.0
2017-Jan-16 18:32N 29°46' W 095°06'0 0.0
2017-Jan-16 17:32N 29°46' W 095°06'0 0.0
2017-Jan-16 16:29N 29°46' W 095°06'0 0.0
2017-Jan-16 15:24N 29°46' W 095°06'0 0.0
2017-Jan-16 14:11N 29°46' W 095°06'6 0.6
2017-Jan-16 05:12N 29°42' W 095°01'4 4.9
2017-Jan-16 04:27N 29°40' W 094°58'5 5.2
2017-Jan-16 03:33N 29°35' W 094°56'7 6.5
2017-Jan-16 02:26N 29°29' W 094°52'8 0.3
2017-Jan-14 21:18N 29°24' W 094°45'0 0.0
2017-Jan-14 18:09N 29°24' W 094°45'0 0.0
2017-Jan-14 17:32N 29°24' W 094°45'0 0.0
2017-Jan-14 16:28N 29°24' W 094°45'  
Track history (hours):
 
Tides and Currents Weather Stations Pressure Air Temp Water Temp Dewpoint Dewpoint Depression Visibility Wind Speed Wind Dir Waves Ship Positions

Texas City

Owner: Marathon Petroleum Company LP, Findlay, OH. More information available from US FCC via Universal Licensing System and Coast Guard Vessel Documentation Center.

Last reported at 2017-Jan-23 21:19 UTC. Time now 2017-Jan-25 01:29 UTC.
Position N 29°47' W 091°49'.

Length 28 m; draft 3 m.

Type: . MMSI: 367135470.

Date/timePositionNaut miles runAvg speedWind from/ knotsBaromVisibWave heightAir tempDewpointWater temp
2017-Jan-23 21:19N 29°47' W 091°49'5 2.6
2017-Jan-23 19:19N 29°51' W 091°53'3 4.4
2017-Jan-23 18:33N 29°50' W 091°57'5 4.8
2017-Jan-23 17:33N 29°49' W 092°02'5 4.8
2017-Jan-23 16:33N 29°47' W 092°08'3 2.9
2017-Jan-23 15:33N 29°47' W 092°11'0 0.0
2017-Jan-23 14:33N 29°47' W 092°11'0 0.0
2017-Jan-23 13:33N 29°47' W 092°11'1 0.8
2017-Jan-23 12:33N 29°47' W 092°12'2 2.2
2017-Jan-23 11:33N 29°48' W 092°14'0 0.0
2017-Jan-23 10:33N 29°48' W 092°14'0 0.0
2017-Jan-23 09:33N 29°48' W 092°14'0 0.0
2017-Jan-23 08:33N 29°48' W 092°14'4 3.8
2017-Jan-23 07:33N 29°50' W 092°18'5 4.8
2017-Jan-23 06:33N 29°52' W 092°23'37 5.1
2017-Jan-22 23:19N 29°56' W 093°05'4 5.3
2017-Jan-22 22:33N 29°56' W 093°09'5 5.1
2017-Jan-22 21:33N 29°60' W 093°13'5 4.5
2017-Jan-22 20:33N 30°04' W 093°16'3 3.4
2017-Jan-22 19:33N 30°06' W 093°19'4 4.2
2017-Jan-22 18:33N 30°04' W 093°24'6 5.9
2017-Jan-22 17:33N 30°04' W 093°30'6 5.8
2017-Jan-22 16:33N 30°04' W 093°37'62 4.7
2017-Jan-22 03:24N 29°29' W 094°36'16 4.2
2017-Jan-21 23:28N 29°22' W 094°53'  
2017-Jan-19 17:29N 29°22' W 094°53'7 0.8
2017-Jan-19 09:33N 29°29' W 094°52'6 5.9
2017-Jan-19 08:33N 29°34' W 094°55'6 5.8
2017-Jan-19 07:33N 29°39' W 094°58'8 5.8
2017-Jan-19 06:08N 29°46' W 095°04'1 1.5
2017-Jan-19 05:33N 29°46' W 095°05'0 0.0
2017-Jan-18 23:33N 29°46' W 095°05'0 0.0
2017-Jan-18 22:33N 29°46' W 095°05'0 0.0
2017-Jan-18 21:33N 29°46' W 095°05'0 0.0
2017-Jan-18 20:31N 29°46' W 095°05'1 0.6
2017-Jan-18 19:32N 29°47' W 095°04'0 0.2
2017-Jan-18 17:32N 29°47' W 095°04'2 0.1
2017-Jan-17 23:09N 29°46' W 095°06'0 0.0
2017-Jan-17 22:33N 29°46' W 095°06'0 0.0
2017-Jan-17 21:33N 29°46' W 095°06'0 0.0
2017-Jan-17 20:31N 29°46' W 095°06'0 0.0
2017-Jan-17 19:33N 29°46' W 095°06'0 0.0
2017-Jan-17 18:33N 29°46' W 095°06'0 0.0
2017-Jan-17 17:33N 29°46' W 095°06'0 0.0
2017-Jan-17 16:33N 29°46' W 095°06'0 0.0
2017-Jan-17 15:33N 29°46' W 095°06'0 0.0
2017-Jan-17 14:31N 29°46' W 095°06'0 0.0
2017-Jan-17 13:33N 29°46' W 095°06'0 0.0
2017-Jan-16 23:23N 29°46' W 095°06'0 0.0
2017-Jan-16 22:26N 29°46' W 095°06'0 0.0
2017-Jan-16 21:32N 29°46' W 095°06'0 0.0
2017-Jan-16 20:31N 29°46' W 095°06'0 0.0
2017-Jan-16 19:33N 29°46' W 095°06'0 0.0
2017-Jan-16 18:32N 29°46' W 095°06'0 0.0
2017-Jan-16 17:32N 29°46' W 095°06'0 0.0
2017-Jan-16 16:29N 29°46' W 095°06'0 0.0
2017-Jan-16 15:24N 29°46' W 095°06'0 0.0
2017-Jan-16 14:11N 29°46' W 095°06'6 0.6
2017-Jan-16 05:12N 29°42' W 095°01'4 4.9
2017-Jan-16 04:27N 29°40' W 094°58'5 5.2
2017-Jan-16 03:33N 29°35' W 094°56'7 6.5
2017-Jan-16 02:26N 29°29' W 094°52'8 0.3
2017-Jan-14 21:18N 29°24' W 094°45'0 0.0
2017-Jan-14 18:09N 29°24' W 094°45'0 0.0
2017-Jan-14 17:32N 29°24' W 094°45'0 0.0
2017-Jan-14 16:28N 29°24' W 094°45'  

Dump ship's entire track history